Time;durP1;ratioP1;P1;durP2;ratioP2;P2;SDS_P1;SDS_P2;PMS_P1;PMS_P2;Temp;Humidity;BMP_temperature;BMP_pressure;BME280_temperature;BME280_humidity;BME280_pressure;Samples;Min_cycle;Max_cycle;Signal;HPM_P1;HPM_P2
2023/12/31 00:01:45;;;;;;;24.10;4.75;;;;;;;;;;4997750;28;20153;-88
2023/12/31 00:04:12;;;;;;;34.15;6.07;;;;;;;;;;5006474;28;20034;-88
2023/12/31 00:06:39;;;;;;;50.55;6.22;;;;;;;;;;4997341;28;20465;-88
2023/12/31 00:09:05;;;;;;;69.00;6.80;;;;;;;;;;5003696;28;20042;-88
2023/12/31 00:11:32;;;;;;;24.75;4.25;;;;;;;;;;4995734;28;20043;-87
2023/12/31 00:13:59;;;;;;;77.82;8.00;;;;;;;;;;5005462;28;20033;-87
2023/12/31 00:16:26;;;;;;;57.83;5.78;;;;;;;;;;4996166;28;20486;-87
2023/12/31 00:18:52;;;;;;;30.25;5.40;;;;;;;;;;5004097;28;20045;-87
2023/12/31 00:21:19;;;;;;;100.95;9.05;;;;;;;;;;4996590;28;20039;-87
2023/12/31 00:23:46;;;;;;;22.48;4.47;;;;;;;;;;5003993;28;20057;-87
2023/12/31 00:26:12;;;;;;;41.33;5.07;;;;;;;;;;4997121;28;20487;-88
2023/12/31 00:28:39;;;;;;;57.35;6.13;;;;;;;;;;4990705;28;20052;-87
2023/12/31 00:31:06;;;;;;;26.55;4.97;;;;;;;;;;4996927;28;20054;-88
2023/12/31 00:33:32;;;;;;;21.92;3.80;;;;;;;;;;4984543;28;20042;-87
2023/12/31 00:36:00;;;;;;;103.00;8.80;;;;;;;;;;5000112;28;20569;-87
2023/12/31 00:38:27;;;;;;;30.98;4.75;;;;;;;;;;5001121;28;20065;-87
2023/12/31 00:40:53;;;;;;;24.38;3.85;;;;;;;;;;4982966;28;20054;-87
2023/12/31 00:43:20;;;;;;;69.90;6.85;;;;;;;;;;5001127;28;20046;-87
2023/12/31 00:45:47;;;;;;;58.35;6.25;;;;;;;;;;5001763;28;20481;-87
2023/12/31 00:48:13;;;;;;;20.02;4.43;;;;;;;;;;4998706;28;20547;-88
2023/12/31 00:50:40;;;;;;;63.53;6.10;;;;;;;;;;5001404;28;20113;-87
2023/12/31 00:53:08;;;;;;;46.05;4.80;;;;;;;;;;4999777;28;20046;-87
2023/12/31 00:55:38;;;;;;;35.58;4.57;;;;;;;;;;5000868;28;20477;-87
2023/12/31 00:58:07;;;;;;;81.22;7.97;;;;;;;;;;4998640;28;20053;-87
2023/12/31 01:00:33;;;;;;;39.15;5.25;;;;;;;;;;4983589;28;20037;-87
2023/12/31 01:03:00;;;;;;;30.27;4.47;;;;;;;;;;4980717;28;20080;-87
2023/12/31 01:05:27;;;;;;;68.53;7.10;;;;;;;;;;5001636;28;20043;-87
2023/12/31 01:07:54;;;;;;;69.20;7.15;;;;;;;;;;4997131;28;20049;-88
2023/12/31 01:10:20;;;;;;;38.20;6.22;;;;;;;;;;4987881;28;20041;-87
2023/12/31 01:12:47;;;;;;;53.28;6.20;;;;;;;;;;4979594;28;20042;-88
2023/12/31 01:15:13;;;;;;;30.75;4.95;;;;;;;;;;4988007;28;20076;-87
2023/12/31 01:17:40;;;;;;;50.25;5.85;;;;;;;;;;4996221;28;20042;-87
2023/12/31 01:20:08;;;;;;;60.58;6.57;;;;;;;;;;4987618;28;20042;-88
2023/12/31 01:22:35;;;;;;;50.55;6.43;;;;;;;;;;4977762;28;20049;-87
2023/12/31 01:25:03;;;;;;;30.38;5.70;;;;;;;;;;5004601;28;20046;-88
2023/12/31 01:27:30;;;;;;;72.45;7.45;;;;;;;;;;4983356;28;20911;-87
2023/12/31 01:29:56;;;;;;;56.05;6.93;;;;;;;;;;4987685;28;20050;-88
2023/12/31 01:32:23;;;;;;;50.15;7.20;;;;;;;;;;4995582;28;20042;-88
2023/12/31 01:34:50;;;;;;;59.50;7.28;;;;;;;;;;4986353;28;20041;-88
2023/12/31 01:37:16;;;;;;;40.95;6.18;;;;;;;;;;4979307;28;20069;-87
2023/12/31 01:39:43;;;;;;;38.67;5.35;;;;;;;;;;4989399;28;20658;-89
2023/12/31 01:42:11;;;;;;;55.78;6.80;;;;;;;;;;4975865;28;20054;-88
2023/12/31 01:44:37;;;;;;;44.90;6.07;;;;;;;;;;5001972;28;20129;-87
2023/12/31 01:47:04;;;;;;;30.55;5.53;;;;;;;;;;4978551;28;20097;-87
2023/12/31 01:49:32;;;;;;;82.32;8.45;;;;;;;;;;5001218;28;20100;-87
2023/12/31 01:51:59;;;;;;;44.83;5.88;;;;;;;;;;4982531;28;20049;-87
2023/12/31 01:54:27;;;;;;;31.45;4.78;;;;;;;;;;5000740;28;20070;-88
2023/12/31 01:56:53;;;;;;;78.43;7.75;;;;;;;;;;5000250;28;20047;-87
2023/12/31 01:59:20;;;;;;;45.15;5.75;;;;;;;;;;4989496;28;20073;-87
2023/12/31 02:01:48;;;;;;;42.90;5.60;;;;;;;;;;5133637;23;20061;-84
2023/12/31 02:04:22;;;;;;;35.25;5.05;;;;;;;;;;4946099;29;20052;-84
2023/12/31 02:06:49;;;;;;;26.23;3.90;;;;;;;;;;4949846;29;20074;-84
2023/12/31 02:09:16;;;;;;;54.13;5.72;;;;;;;;;;4949751;28;20474;-84
2023/12/31 02:11:43;;;;;;;66.20;6.28;;;;;;;;;;4945014;29;20114;-84
2023/12/31 02:14:13;;;;;;;60.17;6.53;;;;;;;;;;4945618;29;20114;-84
2023/12/31 02:16:39;;;;;;;69.43;6.10;;;;;;;;;;4944795;29;20496;-84
2023/12/31 02:19:06;;;;;;;76.10;6.55;;;;;;;;;;4946065;29;20134;-84
2023/12/31 02:21:32;;;;;;;76.88;7.00;;;;;;;;;;4947326;29;20188;-84
2023/12/31 02:23:59;;;;;;;76.70;7.05;;;;;;;;;;4947153;29;20043;-84
2023/12/31 02:26:26;;;;;;;65.25;6.47;;;;;;;;;;4946194;28;20133;-84
2023/12/31 02:28:52;;;;;;;28.80;4.10;;;;;;;;;;4949191;28;20039;-84
2023/12/31 02:31:19;;;;;;;80.18;7.13;;;;;;;;;;4953087;29;20138;-84
2023/12/31 02:33:46;;;;;;;70.43;5.95;;;;;;;;;;4953469;28;20106;-84
2023/12/31 02:36:13;;;;;;;45.45;5.47;;;;;;;;;;4950470;29;20054;-86
2023/12/31 02:38:41;;;;;;;34.92;4.50;;;;;;;;;;4950386;29;20102;-84
2023/12/31 02:41:07;;;;;;;113.35;9.13;;;;;;;;;;4950450;29;20095;-83
2023/12/31 02:43:34;;;;;;;19.73;4.22;;;;;;;;;;4951902;29;20447;-84
2023/12/31 02:46:01;;;;;;;55.25;6.07;;;;;;;;;;4953175;28;20043;-84
2023/12/31 02:48:28;;;;;;;67.88;7.03;;;;;;;;;;4952483;28;20038;-84
2023/12/31 02:50:55;;;;;;;32.88;4.93;;;;;;;;;;4948975;29;20051;-84
2023/12/31 02:53:22;;;;;;;51.80;6.00;;;;;;;;;;4951776;29;20043;-84
2023/12/31 02:55:48;;;;;;;57.50;6.40;;;;;;;;;;4951201;29;20118;-84
2023/12/31 02:58:15;;;;;;;28.50;4.88;;;;;;;;;;4951483;29;20078;-84
2023/12/31 03:00:41;;;;;;;24.45;3.33;;;;;;;;;;4949786;29;20051;-84
2023/12/31 03:03:08;;;;;;;86.70;7.82;;;;;;;;;;4951415;29;20541;-84
2023/12/31 03:05:35;;;;;;;31.33;5.38;;;;;;;;;;4950940;29;20087;-83
2023/12/31 03:08:01;;;;;;;39.72;5.05;;;;;;;;;;4952958;28;20106;-84
2023/12/31 03:10:28;;;;;;;49.22;6.03;;;;;;;;;;4950847;29;20070;-84
2023/12/31 03:12:54;;;;;;;46.30;5.20;;;;;;;;;;4952305;28;20046;-84
2023/12/31 03:15:21;;;;;;;49.47;5.63;;;;;;;;;;4951678;28;20090;-84
2023/12/31 03:17:48;;;;;;;78.00;7.53;;;;;;;;;;4948886;29;20061;-84
2023/12/31 03:20:14;;;;;;;24.88;4.90;;;;;;;;;;4951809;29;20545;-84
2023/12/31 03:22:41;;;;;;;39.20;5.28;;;;;;;;;;4949795;28;20565;-84
2023/12/31 03:25:08;;;;;;;55.80;6.72;;;;;;;;;;4952023;28;20057;-84
2023/12/31 03:27:35;;;;;;;25.30;5.35;;;;;;;;;;4952552;28;20158;-83
2023/12/31 03:30:02;;;;;;;51.10;8.50;;;;;;;;;;4950664;28;20039;-83
2023/12/31 03:32:29;;;;;;;80.43;9.88;;;;;;;;;;4950612;29;20049;-84
2023/12/31 03:34:56;;;;;;;44.38;8.63;;;;;;;;;;4952830;28;20039;-83
2023/12/31 03:37:23;;;;;;;49.30;8.73;;;;;;;;;;4947828;29;20106;-83
2023/12/31 03:39:52;;;;;;;68.55;8.55;;;;;;;;;;4948953;28;20047;-84
2023/12/31 03:42:18;;;;;;;46.25;7.95;;;;;;;;;;4950526;29;20498;-84
2023/12/31 03:44:46;;;;;;;59.17;8.00;;;;;;;;;;4951285;29;20561;-83
2023/12/31 03:47:13;;;;;;;49.67;9.00;;;;;;;;;;4950160;29;20047;-83
2023/12/31 03:49:40;;;;;;;36.13;7.57;;;;;;;;;;4950899;29;20078;-83
2023/12/31 03:52:06;;;;;;;51.25;9.00;;;;;;;;;;4950384;29;20051;-84
2023/12/31 03:54:34;;;;;;;78.85;11.95;;;;;;;;;;4951011;28;20138;-85
2023/12/31 03:57:01;;;;;;;54.30;9.43;;;;;;;;;;4952234;28;20861;-84
2023/12/31 03:59:27;;;;;;;45.65;9.23;;;;;;;;;;4950614;29;20055;-84
2023/12/31 04:01:56;;;;;;;75.15;11.15;;;;;;;;;;4950198;29;20051;-84
2023/12/31 04:04:25;;;;;;;60.13;9.73;;;;;;;;;;4951784;29;20050;-84
2023/12/31 04:06:52;;;;;;;37.38;8.18;;;;;;;;;;4950696;29;20066;-84
2023/12/31 04:09:18;;;;;;;115.13;13.88;;;;;;;;;;4948792;29;20053;-84
2023/12/31 04:11:45;;;;;;;34.50;7.18;;;;;;;;;;4950758;29;20446;-84
2023/12/31 04:14:12;;;;;;;66.70;9.18;;;;;;;;;;4951073;29;20054;-84
2023/12/31 04:16:38;;;;;;;50.50;7.57;;;;;;;;;;4972237;28;20042;-83
2023/12/31 04:19:06;;;;;;;52.00;10.07;;;;;;;;;;4955431;28;20050;-83
2023/12/31 04:21:32;;;;;;;39.45;7.57;;;;;;;;;;4949289;29;20133;-84
2023/12/31 04:23:59;;;;;;;63.85;8.55;;;;;;;;;;4949776;29;20406;-84
2023/12/31 04:26:25;;;;;;;61.60;7.80;;;;;;;;;;4949914;29;20043;-84
2023/12/31 04:28:52;;;;;;;34.85;6.15;;;;;;;;;;4951398;28;20039;-84
2023/12/31 04:31:19;;;;;;;46.70;6.80;;;;;;;;;;4950560;28;20134;-85
2023/12/31 04:33:46;;;;;;;59.45;7.07;;;;;;;;;;4950987;29;20045;-83
2023/12/31 04:36:13;;;;;;;36.20;5.63;;;;;;;;;;4943683;28;20039;-84
2023/12/31 04:38:39;;;;;;;54.00;6.88;;;;;;;;;;4951422;29;20501;-83
2023/12/31 04:41:06;;;;;;;72.30;9.52;;;;;;;;;;4948176;29;20150;-84
2023/12/31 04:43:33;;;;;;;61.05;7.55;;;;;;;;;;4950973;28;20047;-83
2023/12/31 04:46:03;;;;;;;76.10;7.95;;;;;;;;;;4950602;28;20122;-84
2023/12/31 04:48:30;;;;;;;69.45;8.02;;;;;;;;;;4949490;29;20538;-84
2023/12/31 04:50:56;;;;;;;25.40;5.65;;;;;;;;;;4949942;29;20513;-84
2023/12/31 04:53:24;;;;;;;46.00;6.55;;;;;;;;;;4947072;29;20129;-84
2023/12/31 04:55:51;;;;;;;100.65;9.77;;;;;;;;;;4947933;28;20118;-84
2023/12/31 04:58:18;;;;;;;38.33;5.93;;;;;;;;;;4951012;29;20039;-84
2023/12/31 05:00:45;;;;;;;62.25;10.35;;;;;;;;;;4950037;28;20051;-84
2023/12/31 05:03:12;;;;;;;66.80;9.35;;;;;;;;;;4948529;29;20130;-84
2023/12/31 05:05:38;;;;;;;56.15;9.45;;;;;;;;;;4950880;29;20039;-84
2023/12/31 05:08:05;;;;;;;58.67;9.35;;;;;;;;;;4950092;28;20039;-86
2023/12/31 05:10:32;;;;;;;68.47;9.95;;;;;;;;;;4950343;28;20514;-83
2023/12/31 05:12:58;;;;;;;59.15;11.57;;;;;;;;;;4949453;29;20044;-83
2023/12/31 05:15:25;;;;;;;69.43;10.75;;;;;;;;;;4950099;29;20051;-84
2023/12/31 05:17:51;;;;;;;91.95;10.80;;;;;;;;;;4950330;29;20126;-84
2023/12/31 05:20:18;;;;;;;48.60;6.57;;;;;;;;;;4950969;29;20047;-84
2023/12/31 05:22:44;;;;;;;22.83;5.60;;;;;;;;;;4949557;28;20075;-84
2023/12/31 05:25:11;;;;;;;62.38;7.63;;;;;;;;;;4949953;29;20123;-84
2023/12/31 05:27:38;;;;;;;50.53;7.57;;;;;;;;;;4950676;28;20106;-84
2023/12/31 05:30:05;;;;;;;73.72;8.52;;;;;;;;;;4950220;28;20047;-84
2023/12/31 05:32:32;;;;;;;81.88;8.85;;;;;;;;;;4950462;28;20110;-83
2023/12/31 05:34:58;;;;;;;48.70;6.72;;;;;;;;;;4950389;28;20133;-83
2023/12/31 05:37:25;;;;;;;60.10;7.22;;;;;;;;;;4948567;29;20165;-84
2023/12/31 05:39:51;;;;;;;92.13;9.48;;;;;;;;;;4949723;28;20127;-84
2023/12/31 05:42:18;;;;;;;29.65;6.95;;;;;;;;;;4951279;29;20137;-83
2023/12/31 05:44:45;;;;;;;48.45;9.38;;;;;;;;;;4950418;28;20055;-84
2023/12/31 05:47:11;;;;;;;102.38;14.55;;;;;;;;;;4949846;28;20070;-84
2023/12/31 05:49:38;;;;;;;76.63;14.30;;;;;;;;;;4949797;29;20067;-85
2023/12/31 05:52:05;;;;;;;66.57;17.08;;;;;;;;;;4950035;29;20067;-86
2023/12/31 05:54:31;;;;;;;113.00;21.58;;;;;;;;;;4949458;28;20051;-83
2023/12/31 05:56:58;;;;;;;95.88;22.42;;;;;;;;;;4950856;29;20046;-84
2023/12/31 05:59:24;;;;;;;104.57;26.98;;;;;;;;;;4949933;29;20046;-83
2023/12/31 06:01:51;;;;;;;124.25;29.92;;;;;;;;;;4950072;29;20051;-83
2023/12/31 06:04:17;;;;;;;65.57;23.17;;;;;;;;;;4948810;28;20491;-84
2023/12/31 06:06:44;;;;;;;99.68;29.33;;;;;;;;;;4954164;29;20130;-83
2023/12/31 06:09:11;;;;;;;145.73;28.58;;;;;;;;;;4953273;29;20138;-83
2023/12/31 06:11:38;;;;;;;92.93;25.10;;;;;;;;;;4951499;28;20429;-84
2023/12/31 06:14:05;;;;;;;86.22;24.77;;;;;;;;;;4953733;29;20138;-85
2023/12/31 06:16:32;;;;;;;126.47;32.78;;;;;;;;;;4953490;28;20055;-86
2023/12/31 06:18:58;;;;;;;109.03;31.23;;;;;;;;;;4951345;29;20098;-86
2023/12/31 06:21:25;;;;;;;101.15;28.25;;;;;;;;;;4953961;29;20047;-86
2023/12/31 06:23:52;;;;;;;122.85;28.05;;;;;;;;;;4953513;29;20068;-86
2023/12/31 06:26:18;;;;;;;115.35;27.95;;;;;;;;;;4949924;29;20039;-83
2023/12/31 06:28:45;;;;;;;99.07;26.70;;;;;;;;;;4953539;29;20054;-83
2023/12/31 06:31:11;;;;;;;108.93;26.13;;;;;;;;;;4953408;29;20048;-83
2023/12/31 06:33:38;;;;;;;124.13;27.05;;;;;;;;;;4953535;29;20143;-83
2023/12/31 06:36:05;;;;;;;73.18;22.60;;;;;;;;;;4951578;29;20102;-83
2023/12/31 06:38:31;;;;;;;130.07;22.10;;;;;;;;;;4952852;29;20528;-84
2023/12/31 06:40:58;;;;;;;120.80;20.80;;;;;;;;;;4952859;29;20094;-84
2023/12/31 06:43:24;;;;;;;92.93;20.23;;;;;;;;;;4953332;29;20070;-83
2023/12/31 06:45:51;;;;;;;92.30;19.67;;;;;;;;;;4949746;29;20051;-83
2023/12/31 06:48:17;;;;;;;101.72;21.00;;;;;;;;;;4950808;29;20557;-83
2023/12/31 06:50:44;;;;;;;72.63;18.67;;;;;;;;;;4953000;29;20054;-83
2023/12/31 06:53:11;;;;;;;81.85;19.63;;;;;;;;;;4952901;29;20043;-83
2023/12/31 06:55:37;;;;;;;80.78;17.45;;;;;;;;;;4952014;29;20430;-83
2023/12/31 06:58:04;;;;;;;92.60;19.45;;;;;;;;;;4952485;29;20043;-83
2023/12/31 07:00:30;;;;;;;85.20;18.30;;;;;;;;;;4952237;29;20061;-83
2023/12/31 07:02:57;;;;;;;76.32;18.23;;;;;;;;;;4952461;29;20047;-83
2023/12/31 07:05:24;;;;;;;69.93;18.50;;;;;;;;;;4952537;28;20047;-83
2023/12/31 07:07:51;;;;;;;100.47;19.88;;;;;;;;;;4952612;28;20675;-83
2023/12/31 07:10:17;;;;;;;92.50;16.58;;;;;;;;;;4952196;28;20067;-83
2023/12/31 07:12:44;;;;;;;61.08;15.52;;;;;;;;;;4952828;29;20465;-83
2023/12/31 07:15:10;;;;;;;72.00;16.92;;;;;;;;;;4951686;28;20104;-83
2023/12/31 07:17:37;;;;;;;101.93;18.85;;;;;;;;;;4952726;29;20051;-83
2023/12/31 07:20:04;;;;;;;72.80;16.85;;;;;;;;;;4952255;28;20076;-83
2023/12/31 07:22:31;;;;;;;60.85;15.85;;;;;;;;;;4951517;29;20744;-85
2023/12/31 07:24:59;;;;;;;85.95;17.40;;;;;;;;;;4951721;28;20121;-83
2023/12/31 07:27:26;;;;;;;57.17;14.15;;;;;;;;;;4952718;28;20070;-84
2023/12/31 07:29:52;;;;;;;70.75;16.23;;;;;;;;;;4952512;28;20399;-83
2023/12/31 07:32:19;;;;;;;79.22;17.30;;;;;;;;;;4948602;29;20406;-85
2023/12/31 07:34:45;;;;;;;59.58;16.52;;;;;;;;;;4951899;29;20142;-86
2023/12/31 07:37:12;;;;;;;77.20;21.42;;;;;;;;;;4951682;29;20047;-86
2023/12/31 07:39:41;;;;;;;106.78;24.33;;;;;;;;;;4951759;29;20138;-83
2023/12/31 07:42:08;;;;;;;89.50;21.90;;;;;;;;;;4952568;29;20053;-83
2023/12/31 07:44:35;;;;;;;88.20;19.63;;;;;;;;;;4950288;29;20134;-83
2023/12/31 07:47:03;;;;;;;96.07;19.98;;;;;;;;;;4951233;28;20122;-84
2023/12/31 07:49:30;;;;;;;91.70;20.70;;;;;;;;;;4952309;28;20490;-84
2023/12/31 07:51:57;;;;;;;74.85;19.67;;;;;;;;;;4952264;28;20071;-83
2023/12/31 07:54:25;;;;;;;88.95;18.65;;;;;;;;;;4951563;29;20070;-83
2023/12/31 07:56:52;;;;;;;60.10;15.60;;;;;;;;;;4948485;29;20110;-83
2023/12/31 07:59:18;;;;;;;62.88;16.13;;;;;;;;;;4951857;29;20073;-83
2023/12/31 08:01:45;;;;;;;59.60;14.90;;;;;;;;;;4951349;28;20061;-83
2023/12/31 08:04:11;;;;;;;62.17;16.25;;;;;;;;;;4948875;28;20047;-83
2023/12/31 08:06:38;;;;;;;79.50;17.50;;;;;;;;;;4951653;29;20047;-83
2023/12/31 08:09:07;;;;;;;132.30;19.98;;;;;;;;;;4950887;29;20047;-83
2023/12/31 08:11:33;;;;;;;78.43;15.75;;;;;;;;;;4951616;29;20047;-83
2023/12/31 08:14:00;;;;;;;68.28;15.40;;;;;;;;;;4951744;28;20494;-83
2023/12/31 08:16:26;;;;;;;82.03;15.68;;;;;;;;;;4945522;29;20051;-86
2023/12/31 08:18:53;;;;;;;76.03;16.50;;;;;;;;;;4951456;29;20055;-85
2023/12/31 08:21:20;;;;;;;64.10;13.75;;;;;;;;;;4947851;29;20039;-83
2023/12/31 08:23:51;;;;;;;65.63;14.48;;;;;;;;;;4946357;29;20043;-83
2023/12/31 08:26:18;;;;;;;56.20;16.08;;;;;;;;;;4949281;28;20410;-83
2023/12/31 08:28:45;;;;;;;65.55;16.33;;;;;;;;;;4951056;29;20487;-83
2023/12/31 08:31:15;;;;;;;87.72;19.67;;;;;;;;;;4951096;29;20098;-83
2023/12/31 08:33:42;;;;;;;78.18;17.77;;;;;;;;;;4951134;28;20059;-83
2023/12/31 08:36:08;;;;;;;58.17;19.45;;;;;;;;;;4951042;29;20664;-83
2023/12/31 08:38:35;;;;;;;112.57;24.15;;;;;;;;;;4949913;29;20483;-83
2023/12/31 08:41:02;;;;;;;88.10;22.45;;;;;;;;;;4948273;29;20143;-83
2023/12/31 08:43:28;;;;;;;77.35;22.05;;;;;;;;;;4951332;29;20049;-83
2023/12/31 08:45:55;;;;;;;103.25;22.77;;;;;;;;;;4950181;29;20498;-83
2023/12/31 08:48:21;;;;;;;57.35;18.63;;;;;;;;;;4946219;29;20055;-85
2023/12/31 08:50:49;;;;;;;50.42;17.58;;;;;;;;;;4950787;29;20483;-86
2023/12/31 08:53:15;;;;;;;77.22;15.40;;;;;;;;;;4950434;28;20047;-84
2023/12/31 08:55:42;;;;;;;66.47;14.43;;;;;;;;;;4950713;29;20130;-84
2023/12/31 08:58:09;;;;;;;50.70;12.43;;;;;;;;;;4949947;29;20402;-85
2023/12/31 09:00:35;;;;;;;87.90;14.10;;;;;;;;;;4940393;28;20051;-83
2023/12/31 09:03:02;;;;;;;875.35;91.70;;;;;;;;;;4910962;29;20235;-87
2023/12/31 09:05:29;;;;;;;837.15;87.25;;;;;;;;;;4833235;29;20035;-86
2023/12/31 09:07:56;;;;;;;847.60;89.30;;;;;;;;;;4826737;29;20054;-85
2023/12/31 09:10:25;;;;;;;905.33;94.60;;;;;;;;;;4828801;29;20043;-85
2023/12/31 09:12:52;;;;;;;866.13;89.65;;;;;;;;;;4825017;29;21058;-85
2023/12/31 09:15:19;;;;;;;832.72;86.80;;;;;;;;;;4835957;29;20070;-83
2023/12/31 09:17:46;;;;;;;853.03;89.05;;;;;;;;;;4833647;28;20415;-83
2023/12/31 09:20:13;;;;;;;900.95;95.90;;;;;;;;;;4832033;29;20047;-83
2023/12/31 09:22:40;;;;;;;964.28;104.05;;;;;;;;;;4828042;28;21153;-83
2023/12/31 09:25:08;;;;;;;939.67;100.88;;;;;;;;;;4819354;29;20221;-83
2023/12/31 09:27:35;;;;;;;881.30;93.05;;;;;;;;;;4831331;28;20327;-83
2023/12/31 09:30:01;;;;;;;875.10;91.93;;;;;;;;;;4829701;28;20031;-84
2023/12/31 09:32:28;;;;;;;896.28;96.18;;;;;;;;;;4826822;29;20099;-84
2023/12/31 09:34:55;;;;;;;927.85;97.72;;;;;;;;;;4812777;29;21034;-83
2023/12/31 09:37:23;;;;;;;1086.45;117.28;;;;;;;;;;4814543;29;20968;-84
2023/12/31 09:39:50;;;;;;;845.10;88.35;;;;;;;;;;4824572;28;20055;-84
2023/12/31 09:42:25;;;;;;;880.17;92.93;;;;;;;;;;4827951;29;20047;-84
2023/12/31 09:44:52;;;;;;;820.28;85.22;;;;;;;;;;4815548;28;20146;-84
2023/12/31 09:47:19;;;;;;;882.55;93.88;;;;;;;;;;4834074;28;20050;-83
2023/12/31 09:49:45;;;;;;;857.08;90.47;;;;;;;;;;4834637;29;20690;-84
2023/12/31 09:52:12;;;;;;;784.45;82.40;;;;;;;;;;4836774;29;20047;-83
2023/12/31 09:54:40;;;;;;;894.35;96.80;;;;;;;;;;4838050;28;20891;-85
2023/12/31 09:57:07;;;;;;;857.35;93.63;;;;;;;;;;4837060;29;20042;-83
2023/12/31 09:59:35;;;;;;;847.42;92.35;;;;;;;;;;4837395;29;20035;-85
2023/12/31 10:02:03;;;;;;;858.47;92.90;;;;;;;;;;4839414;28;20452;-84
2023/12/31 10:04:33;;;;;;;855.30;93.45;;;;;;;;;;4837821;28;20043;-85
2023/12/31 10:06:59;;;;;;;797.80;85.85;;;;;;;;;;4845115;28;21181;-86
2023/12/31 10:09:27;;;;;;;1056.32;118.13;;;;;;;;;;4830352;28;21319;-85
2023/12/31 10:11:58;;;;;;;812.60;87.60;;;;;;;;;;4840294;28;20047;-84
2023/12/31 10:14:25;;;;;;;903.53;99.85;;;;;;;;;;4832566;29;20294;-85
2023/12/31 10:16:52;;;;;;;1053.47;116.07;;;;;;;;;;4830487;29;20066;-85
2023/12/31 10:19:19;;;;;;;945.55;103.15;;;;;;;;;;4819346;29;20039;-84
2023/12/31 10:21:48;;;;;;;943.85;102.28;;;;;;;;;;4812657;29;20039;-85
2023/12/31 10:24:25;;;;;;;851.20;89.85;;;;;;;;;;4833583;29;20039;-84
2023/12/31 10:26:51;;;;;;;859.13;90.63;;;;;;;;;;4829456;29;20058;-83
2023/12/31 10:29:19;;;;;;;893.60;94.53;;;;;;;;;;4822412;29;20051;-84
2023/12/31 10:31:47;;;;;;;947.25;103.45;;;;;;;;;;4827141;29;20064;-84
2023/12/31 10:34:15;;;;;;;878.15;94.30;;;;;;;;;;4815991;29;20031;-83
2023/12/31 10:36:48;;;;;;;875.20;93.38;;;;;;;;;;4855653;29;21044;-83
2023/12/31 10:39:34;;;;;;;868.83;91.75;;;;;;;;;;4836092;28;20109;-82
2023/12/31 10:42:04;;;;;;;885.72;94.82;;;;;;;;;;4835088;28;20863;-83
2023/12/31 10:44:34;;;;;;;861.25;94.18;;;;;;;;;;4834550;28;20043;-83
2023/12/31 10:47:09;;;;;;;871.17;95.05;;;;;;;;;;4834721;28;20956;-83
2023/12/31 10:49:42;;;;;;;874.03;96.97;;;;;;;;;;4831474;28;20047;-83
2023/12/31 10:52:11;;;;;;;887.95;97.80;;;;;;;;;;4834402;28;20928;-83
2023/12/31 10:54:47;;;;;;;859.85;95.82;;;;;;;;;;4832876;29;20074;-82
2023/12/31 10:57:16;;;;;;;917.72;99.95;;;;;;;;;;4828484;29;20039;-82
2023/12/31 10:59:43;;;;;;;896.80;97.22;;;;;;;;;;4847369;28;20040;-85
2023/12/31 11:02:14;;;;;;;887.67;95.45;;;;;;;;;;4839153;29;20957;-82
2023/12/31 11:04:42;;;;;;;898.45;97.50;;;;;;;;;;4835626;28;20054;-82
2023/12/31 11:07:09;;;;;;;918.30;99.70;;;;;;;;;;4835890;28;20043;-82
2023/12/31 11:09:35;;;;;;;902.33;97.55;;;;;;;;;;4833013;28;20866;-82
2023/12/31 11:12:02;;;;;;;871.55;93.80;;;;;;;;;;4836659;28;20243;-81
2023/12/31 11:14:31;;;;;;;147.35;23.08;;;;;;;;;;4873884;29;20178;-84
2023/12/31 11:17:17;;;;;;;59.13;17.63;;;;;;;;;;4947897;28;20391;-84
2023/12/31 11:20:05;;;;;;;95.47;19.80;;;;;;;;;;4943072;29;20051;-83
2023/12/31 11:22:31;;;;;;;86.80;18.80;;;;;;;;;;4948285;29;20061;-83
2023/12/31 11:24:59;;;;;;;98.40;17.45;;;;;;;;;;4941881;29;20075;-84
2023/12/31 11:27:31;;;;;;;58.47;12.90;;;;;;;;;;4946328;29;20067;-83
2023/12/31 11:29:58;;;;;;;61.17;13.32;;;;;;;;;;4940502;29;20138;-84
2023/12/31 11:32:27;;;;;;;60.40;13.05;;;;;;;;;;4946875;28;20122;-83
2023/12/31 11:34:54;;;;;;;69.07;12.35;;;;;;;;;;4941912;29;20043;-81
2023/12/31 11:37:21;;;;;;;93.97;13.38;;;;;;;;;;4945372;29;20483;-83
2023/12/31 11:39:48;;;;;;;51.45;11.82;;;;;;;;;;4944075;28;20110;-82
2023/12/31 11:42:18;;;;;;;91.55;13.68;;;;;;;;;;4943011;29;20063;-82
2023/12/31 11:44:45;;;;;;;93.15;14.82;;;;;;;;;;4942182;29;20063;-83
2023/12/31 11:47:16;;;;;;;62.75;13.68;;;;;;;;;;4942965;29;20442;-83
2023/12/31 11:49:48;;;;;;;85.30;15.05;;;;;;;;;;4945343;28;20099;-83
2023/12/31 11:52:15;;;;;;;122.50;16.70;;;;;;;;;;4942168;29;20142;-83
2023/12/31 11:54:43;;;;;;;91.63;14.68;;;;;;;;;;4942856;29;20044;-83
2023/12/31 11:57:10;;;;;;;85.88;14.35;;;;;;;;;;4941820;29;20046;-83
2023/12/31 11:59:37;;;;;;;121.97;17.05;;;;;;;;;;4941153;29;20059;-82
2023/12/31 12:02:05;;;;;;;90.55;15.27;;;;;;;;;;4940465;28;20516;-83
2023/12/31 12:04:33;;;;;;;84.10;14.18;;;;;;;;;;4944104;29;20051;-83
2023/12/31 12:06:59;;;;;;;79.78;14.68;;;;;;;;;;4943428;29;20131;-82
2023/12/31 12:09:27;;;;;;;70.95;14.75;;;;;;;;;;4944730;29;20067;-82
2023/12/31 12:12:00;;;;;;;99.13;15.48;;;;;;;;;;4948483;28;20133;-82
2023/12/31 12:14:27;;;;;;;61.08;13.30;;;;;;;;;;4950587;29;20043;-82
2023/12/31 12:16:54;;;;;;;68.45;14.15;;;;;;;;;;4951384;28;20047;-82
2023/12/31 12:19:25;;;;;;;63.00;13.60;;;;;;;;;;4948297;29;20395;-82
2023/12/31 12:21:52;;;;;;;57.97;13.23;;;;;;;;;;4949430;29;20032;-82
2023/12/31 12:24:19;;;;;;;97.47;15.60;;;;;;;;;;4950402;28;20091;-82
2023/12/31 12:26:47;;;;;;;78.43;13.75;;;;;;;;;;4951072;28;20580;-83
2023/12/31 12:29:15;;;;;;;96.38;16.85;;;;;;;;;;4943072;29;20219;-81
2023/12/31 12:31:43;;;;;;;69.88;14.07;;;;;;;;;;4944921;29;20059;-81
2023/12/31 12:34:10;;;;;;;96.47;15.27;;;;;;;;;;4948942;29;20035;-81
2023/12/31 12:36:38;;;;;;;61.83;13.52;;;;;;;;;;4951243;29;20078;-81
2023/12/31 12:39:05;;;;;;;113.72;16.40;;;;;;;;;;4949954;28;20047;-81
2023/12/31 12:41:32;;;;;;;70.65;15.18;;;;;;;;;;4949573;29;20553;-82
2023/12/31 12:44:17;;;;;;;105.28;16.10;;;;;;;;;;4947147;28;20411;-81
2023/12/31 12:46:45;;;;;;;92.13;17.75;;;;;;;;;;4947377;29;20055;-81
2023/12/31 12:49:12;;;;;;;93.45;17.15;;;;;;;;;;4947475;28;20066;-81
2023/12/31 12:51:39;;;;;;;73.68;14.80;;;;;;;;;;4949283;28;20118;-81
2023/12/31 12:54:07;;;;;;;99.05;16.95;;;;;;;;;;4947213;28;20166;-81
2023/12/31 12:56:34;;;;;;;104.40;16.95;;;;;;;;;;4948921;28;20058;-80
2023/12/31 12:59:03;;;;;;;69.88;14.60;;;;;;;;;;4951048;29;20137;-81
2023/12/31 13:01:31;;;;;;;59.42;12.95;;;;;;;;;;4947711;29;20043;-80
2023/12/31 13:03:58;;;;;;;58.17;13.48;;;;;;;;;;4948837;28;20058;-80
2023/12/31 13:06:24;;;;;;;52.70;12.38;;;;;;;;;;4950416;29;20454;-80
2023/12/31 13:08:51;;;;;;;61.50;12.18;;;;;;;;;;4950626;29;20047;-80
2023/12/31 13:11:17;;;;;;;80.80;13.48;;;;;;;;;;4950156;29;20138;-80
2023/12/31 13:13:45;;;;;;;72.65;15.48;;;;;;;;;;4948016;29;20455;-80
2023/12/31 13:16:12;;;;;;;49.72;11.27;;;;;;;;;;4944457;28;20439;-80
2023/12/31 13:18:48;;;;;;;68.72;13.73;;;;;;;;;;4941452;29;20051;-80
2023/12/31 13:21:15;;;;;;;55.65;11.02;;;;;;;;;;4942608;28;20043;-80
2023/12/31 13:23:43;;;;;;;94.88;14.77;;;;;;;;;;4944136;29;20426;-81
2023/12/31 13:26:09;;;;;;;61.28;13.35;;;;;;;;;;4940287;29;20130;-81
2023/12/31 13:28:36;;;;;;;82.85;14.05;;;;;;;;;;4943146;29;20138;-81
2023/12/31 13:31:02;;;;;;;126.45;16.77;;;;;;;;;;4944401;29;20046;-82
2023/12/31 13:33:30;;;;;;;55.40;13.73;;;;;;;;;;4942386;29;20039;-81
2023/12/31 13:35:57;;;;;;;102.75;17.10;;;;;;;;;;4945159;28;20491;-81
2023/12/31 13:38:24;;;;;;;98.40;17.65;;;;;;;;;;4950146;29;20043;-82
2023/12/31 13:40:51;;;;;;;66.43;16.45;;;;;;;;;;4945627;28;20486;-81
2023/12/31 13:43:17;;;;;;;72.32;17.85;;;;;;;;;;4950387;28;20082;-81
2023/12/31 13:45:44;;;;;;;83.65;20.02;;;;;;;;;;4948949;28;20047;-81
2023/12/31 13:48:13;;;;;;;50.65;17.98;;;;;;;;;;4948301;28;20134;-84
2023/12/31 13:50:40;;;;;;;138.65;23.77;;;;;;;;;;4948146;29;20502;-88
2023/12/31 13:53:09;;;;;;;95.95;21.10;;;;;;;;;;4950424;28;20526;-82
2023/12/31 13:55:35;;;;;;;79.45;19.90;;;;;;;;;;4950096;28;20039;-82
2023/12/31 13:58:02;;;;;;;624.30;73.80;;;;;;;;;;4938685;29;20070;-83
2023/12/31 14:00:29;;;;;;;933.60;104.65;;;;;;;;;;4820951;29;20145;-82
2023/12/31 14:02:55;;;;;;;904.17;101.53;;;;;;;;;;4835612;28;20110;-83
2023/12/31 14:05:32;;;;;;;211.93;29.30;;;;;;;;;;4888587;29;20154;-89
2023/12/31 14:07:59;;;;;;;267.20;33.92;;;;;;;;;;4927945;29;20527;-88
2023/12/31 14:10:26;;;;;;;322.33;37.55;;;;;;;;;;4907288;29;20058;-89
2023/12/31 14:12:53;;;;;;;698.78;77.40;;;;;;;;;;4885497;29;21015;-87
2023/12/31 14:15:20;;;;;;;69.68;18.75;;;;;;;;;;4933418;29;20097;-89
2023/12/31 14:17:47;;;;;;;239.10;30.73;;;;;;;;;;4936103;28;20082;-87
2023/12/31 14:20:14;;;;;;;300.42;37.83;;;;;;;;;;4926365;29;20582;-87